createdAt,value
2022-11-16T00:00:26.409Z,83.25
2022-11-16T00:01:29.442Z,83.58
2022-11-16T00:02:31.447Z,83.47
2022-11-16T00:03:33.845Z,83.76
2022-11-16T00:04:35.790Z,83.38
2022-11-16T00:05:37.695Z,83.51
2022-11-16T00:06:40.243Z,84.26
2022-11-16T00:07:42.061Z,83.92
2022-11-16T00:08:45.562Z,83.88
2022-11-16T00:09:47.379Z,83.78
2022-11-16T00:10:49.189Z,83.37
2022-11-16T00:11:55.068Z,82.67
2022-11-16T00:12:56.906Z,82.87
2022-11-16T00:13:58.810Z,82.68
2022-11-16T00:15:00.637Z,82.54
2022-11-16T00:16:02.462Z,83.13
2022-11-16T00:17:04.577Z,82.93
2022-11-16T00:18:06.449Z,82.45
2022-11-16T00:19:08.586Z,83.08
2022-11-16T00:20:10.814Z,83.12
2022-11-16T00:21:12.588Z,83.39
2022-11-16T00:22:14.411Z,83.39
2022-11-16T00:23:16.293Z,83.69
2022-11-16T00:24:19.375Z,83.87
2022-11-16T00:25:21.179Z,83.21
2022-11-16T00:26:24.420Z,83.64
2022-11-16T00:27:26.258Z,83.74
2022-11-16T00:28:28.526Z,83.03
2022-11-16T00:29:30.355Z,83.02
2022-11-16T00:30:32.221Z,83.41
2022-11-16T00:31:34.038Z,82.54
2022-11-16T00:32:35.875Z,83.70
2022-11-16T00:33:37.816Z,83.54
2022-11-16T00:34:40.020Z,82.22
2022-11-16T00:35:41.850Z,82.72
2022-11-16T00:36:43.869Z,83.31
2022-11-16T00:37:45.653Z,82.99
2022-11-16T00:38:47.842Z,83.33
2022-11-16T00:39:49.755Z,83.58
2022-11-16T00:40:51.540Z,82.75
2022-11-16T00:41:53.456Z,82.24
2022-11-16T00:42:55.319Z,82.48
2022-11-16T00:43:57.130Z,82.79
2022-11-16T00:44:59.010Z,82.19
2022-11-16T00:46:00.928Z,82.16
2022-11-16T00:47:02.768Z,82.03
2022-11-16T00:48:04.621Z,82.63
2022-11-16T00:49:06.418Z,82.74
2022-11-16T00:50:08.343Z,82.77
2022-11-16T00:51:10.215Z,82.65
2022-11-16T00:52:12.099Z,82.66
2022-11-16T00:53:15.603Z,82.76
2022-11-16T00:54:17.424Z,82.46
2022-11-16T00:55:19.260Z,83.18
2022-11-16T00:56:21.074Z,82.57
2022-11-16T00:57:23.011Z,82.53
2022-11-16T00:58:24.951Z,82.71
2022-11-16T00:59:26.763Z,82.91
2022-11-16T01:00:28.658Z,82.36
2022-11-16T01:01:30.490Z,81.96
2022-11-16T01:02:32.318Z,81.87
2022-11-16T01:03:35.008Z,82.05
2022-11-16T01:04:36.839Z,82.06
2022-11-16T01:05:38.655Z,82.78
2022-11-16T01:06:40.523Z,82.48
2022-11-16T01:07:42.331Z,82.86
2022-11-16T01:08:44.524Z,83.04
2022-11-16T01:09:46.265Z,82.99
2022-11-16T01:10:48.159Z,82.94
2022-11-16T01:12:08.494Z,82.45
2022-11-16T01:13:11.240Z,81.72
2022-11-16T01:14:13.167Z,82.00
2022-11-16T01:15:15.991Z,82.36
2022-11-16T01:16:18.814Z,81.67
2022-11-16T01:17:20.624Z,81.87
2022-11-16T01:18:22.415Z,82.30
2022-11-16T01:19:24.236Z,82.14
2022-11-16T01:20:27.599Z,82.66
2022-11-16T01:21:29.374Z,82.03
2022-11-16T01:22:31.197Z,82.99
2022-11-16T01:23:33.125Z,82.47
2022-11-16T01:24:35.027Z,82.92
2022-11-16T01:25:37.009Z,82.35
2022-11-16T01:26:38.780Z,82.23
2022-11-16T01:27:41.313Z,82.29
2022-11-16T01:28:43.179Z,81.56
2022-11-16T01:29:45.593Z,81.67
2022-11-16T01:30:48.611Z,81.42
2022-11-16T01:31:50.535Z,81.51
2022-11-16T01:32:52.353Z,81.56
2022-11-16T01:33:54.726Z,81.98
2022-11-16T01:34:56.511Z,82.46
2022-11-16T01:35:58.369Z,82.12
2022-11-16T01:37:00.211Z,81.66
2022-11-16T01:38:01.962Z,82.27
2022-11-16T01:39:04.833Z,82.28
2022-11-16T01:40:07.033Z,82.83
2022-11-16T01:41:09.331Z,83.04
2022-11-16T01:42:18.056Z,82.54
2022-11-16T01:43:22.157Z,82.54
2022-11-16T01:44:33.045Z,81.90
2022-11-16T01:45:44.253Z,82.21
2022-11-16T01:46:45.993Z,83.23
2022-11-16T01:47:48.024Z,83.70
2022-11-16T01:48:50.968Z,83.67
2022-11-16T01:50:04.675Z,84.07
2022-11-16T01:51:06.514Z,85.39
2022-11-16T01:52:10.486Z,85.43
2022-11-16T01:53:13.216Z,84.88
2022-11-16T01:54:15.100Z,84.62
2022-11-16T01:55:17.174Z,85.30
2022-11-16T01:56:19.225Z,84.74
2022-11-16T01:57:28.190Z,84.78
2022-11-16T01:58:30.291Z,84.22
2022-11-16T01:59:32.707Z,84.37
2022-11-16T02:00:34.501Z,83.81
2022-11-16T02:01:36.371Z,84.15
2022-11-16T02:02:38.247Z,84.59
2022-11-16T02:03:40.256Z,84.46
2022-11-16T02:04:42.516Z,84.68
2022-11-16T02:06:03.177Z,84.26
2022-11-16T02:07:16.473Z,83.51
2022-11-16T02:08:47.804Z,84.21
2022-11-16T02:10:09.826Z,84.50
2022-11-16T02:11:29.750Z,84.10
2022-11-16T02:12:38.389Z,84.71
2022-11-16T02:13:57.119Z,84.53
2022-11-16T02:14:58.987Z,83.97
2022-11-16T02:16:21.000Z,84.21
2022-11-16T02:17:35.027Z,83.52
2022-11-16T02:18:46.397Z,83.13
2022-11-16T02:20:06.605Z,83.88
2022-11-16T02:21:18.605Z,83.42
2022-11-16T02:22:29.398Z,83.34
2022-11-16T02:23:49.976Z,83.57
2022-11-16T02:25:01.035Z,83.87
2022-11-16T02:26:11.726Z,83.57
2022-11-16T02:27:32.222Z,83.34
2022-11-16T02:28:52.427Z,83.17
2022-11-16T02:29:55.700Z,82.63
2022-11-16T02:31:00.569Z,82.87
2022-11-16T02:32:09.018Z,83.24
2022-11-16T02:33:13.592Z,83.58
2022-11-16T02:34:16.997Z,83.11
2022-11-16T02:35:22.273Z,83.14
2022-11-16T02:36:25.266Z,82.92
2022-11-16T02:37:28.809Z,82.59
2022-11-16T02:38:34.328Z,83.27
2022-11-16T02:39:37.634Z,82.54
2022-11-16T02:40:41.422Z,83.40
2022-11-16T02:41:44.584Z,82.90
2022-11-16T02:42:58.350Z,82.69
2022-11-16T02:44:03.411Z,83.31
2022-11-16T02:45:07.050Z,83.15
2022-11-16T02:46:12.627Z,84.04
2022-11-16T02:47:18.486Z,83.60
2022-11-16T02:48:26.424Z,83.67
2022-11-16T02:49:29.376Z,83.74
2022-11-16T02:50:33.144Z,83.72
2022-11-16T02:51:36.847Z,83.94
2022-11-16T02:52:39.600Z,83.40
2022-11-16T02:53:58.117Z,84.30
2022-11-16T02:54:59.926Z,83.89
2022-11-16T02:56:01.901Z,83.71
2022-11-16T02:57:03.657Z,83.02
2022-11-16T02:58:12.012Z,83.13
2022-11-16T02:59:17.526Z,83.10
2022-11-16T03:00:21.902Z,83.57
2022-11-16T03:01:29.732Z,84.10
2022-11-16T03:02:46.990Z,84.14
2022-11-16T03:04:02.199Z,83.03
2022-11-16T03:05:13.954Z,83.63
2022-11-16T03:06:42.025Z,83.43
2022-11-16T03:07:50.276Z,83.66
2022-11-16T03:09:03.322Z,83.43
2022-11-16T03:10:05.351Z,83.37
2022-11-16T03:11:27.241Z,83.45
2022-11-16T03:12:31.390Z,83.21
2022-11-16T03:13:34.211Z,83.81
2022-11-16T03:14:39.040Z,83.70
2022-11-16T03:15:41.635Z,84.23
2022-11-16T03:16:46.039Z,83.60
2022-11-16T03:17:50.276Z,83.67
2022-11-16T03:18:54.109Z,84.22
2022-11-16T03:20:02.137Z,84.15
2022-11-16T03:21:06.672Z,84.06
2022-11-16T03:22:14.741Z,83.66
2022-11-16T03:23:16.693Z,84.26
2022-11-16T03:24:18.630Z,83.75
2022-11-16T03:25:21.575Z,83.17
2022-11-16T03:26:27.073Z,83.56
2022-11-16T03:27:39.635Z,83.17
2022-11-16T03:28:47.897Z,83.93
2022-11-16T03:30:01.042Z,83.48
2022-11-16T03:31:06.411Z,83.12
2022-11-16T03:32:28.436Z,84.13
2022-11-16T03:33:35.686Z,83.71
2022-11-16T03:34:38.331Z,83.65
2022-11-16T03:35:46.183Z,84.38
2022-11-16T03:36:50.372Z,83.74
2022-11-16T03:37:53.985Z,84.48
2022-11-16T03:38:59.648Z,84.23
2022-11-16T03:40:03.008Z,83.51
2022-11-16T03:41:07.782Z,83.43
2022-11-16T03:42:14.260Z,83.41
2022-11-16T03:43:17.771Z,83.43
2022-11-16T03:44:20.936Z,83.24
2022-11-16T03:45:22.801Z,83.03
2022-11-16T03:46:24.626Z,83.74
2022-11-16T03:47:26.472Z,83.69
2022-11-16T03:48:36.046Z,82.59
2022-11-16T03:49:38.143Z,83.85
2022-11-16T03:50:41.051Z,83.27
2022-11-16T03:51:42.998Z,83.69
2022-11-16T03:52:44.851Z,82.87
2022-11-16T03:53:46.699Z,83.52
2022-11-16T03:54:48.579Z,82.90
2022-11-16T03:55:50.394Z,83.13
2022-11-16T03:56:52.218Z,83.34
2022-11-16T03:57:54.130Z,83.60
2022-11-16T03:58:55.997Z,83.33
2022-11-16T03:59:57.863Z,83.68
2022-11-16T04:01:00.419Z,83.71
2022-11-16T04:02:02.362Z,83.69
2022-11-16T04:03:04.350Z,83.86
2022-11-16T04:04:06.160Z,84.35
2022-11-16T04:05:26.896Z,84.65
2022-11-16T04:06:47.318Z,83.82
2022-11-16T04:08:07.818Z,84.47
2022-11-16T04:09:28.845Z,84.44
2022-11-16T04:10:49.029Z,84.21
2022-11-16T04:12:09.746Z,85.26
2022-11-16T04:13:30.883Z,85.37
2022-11-16T04:14:51.561Z,85.19
2022-11-16T04:16:11.843Z,85.31
2022-11-16T04:17:33.783Z,84.76
2022-11-16T04:18:53.881Z,85.17
2022-11-16T04:20:14.004Z,84.81
2022-11-16T04:21:54.857Z,84.59
2022-11-16T04:23:19.116Z,84.59
2022-11-16T04:24:23.663Z,83.69
2022-11-16T04:25:27.520Z,84.40
2022-11-16T04:26:47.903Z,84.05
2022-11-16T04:28:08.619Z,83.40
2022-11-16T04:29:11.238Z,83.60
2022-11-16T04:30:13.358Z,83.58
2022-11-16T04:31:33.718Z,83.86
2022-11-16T04:32:54.802Z,84.23
2022-11-16T04:34:15.167Z,83.88
2022-11-16T04:35:48.695Z,83.79
2022-11-16T04:37:08.946Z,83.01
2022-11-16T04:38:10.778Z,83.69
2022-11-16T04:39:12.563Z,83.79
2022-11-16T04:40:15.218Z,84.42
2022-11-16T04:41:35.292Z,83.97
2022-11-16T04:42:37.110Z,84.54
2022-11-16T04:43:38.994Z,84.52
2022-11-16T04:44:59.216Z,84.50
2022-11-16T04:46:19.389Z,84.07
2022-11-16T04:47:21.207Z,84.83
2022-11-16T04:48:23.124Z,84.65
2022-11-16T04:49:25.046Z,83.91
2022-11-16T04:50:26.939Z,84.79
2022-11-16T04:51:28.855Z,84.83
2022-11-16T04:52:30.638Z,84.65
2022-11-16T04:53:32.472Z,84.53
2022-11-16T04:54:34.373Z,85.18
2022-11-16T04:55:36.392Z,85.26
2022-11-16T04:56:38.177Z,85.05
2022-11-16T04:57:40.377Z,84.62
2022-11-16T04:58:42.136Z,84.96
2022-11-16T04:59:43.993Z,84.93
2022-11-16T05:00:45.834Z,84.96
2022-11-16T05:02:06.019Z,84.17
2022-11-16T05:03:07.911Z,83.14
2022-11-16T05:04:09.843Z,83.33
2022-11-16T05:05:11.711Z,82.87
2022-11-16T05:06:13.580Z,83.28
2022-11-16T05:07:15.928Z,82.47
2022-11-16T05:08:17.865Z,82.42
2022-11-16T05:09:19.711Z,83.25
2022-11-16T05:10:21.790Z,82.49
2022-11-16T05:11:24.254Z,82.73
2022-11-16T05:12:26.843Z,82.84
2022-11-16T05:13:28.786Z,82.89
2022-11-16T05:14:30.578Z,82.94
2022-11-16T05:15:32.515Z,83.27
2022-11-16T05:16:34.398Z,84.43
2022-11-16T05:17:36.566Z,83.84
2022-11-16T05:18:38.430Z,83.97
2022-11-16T05:19:58.605Z,84.13
2022-11-16T05:21:03.270Z,84.03
2022-11-16T05:22:05.078Z,83.65
2022-11-16T05:23:26.825Z,84.15
2022-11-16T05:24:34.696Z,84.33
2022-11-16T05:25:37.123Z,83.75
2022-11-16T05:26:39.197Z,84.71
2022-11-16T05:27:40.972Z,84.82
2022-11-16T05:28:42.811Z,84.26
2022-11-16T05:29:45.269Z,84.33
2022-11-16T05:30:47.083Z,84.76
2022-11-16T05:31:48.975Z,84.83
2022-11-16T05:32:50.920Z,85.01
2022-11-16T05:33:52.748Z,85.07
2022-11-16T05:34:55.001Z,85.29
2022-11-16T05:35:56.819Z,84.74
2022-11-16T05:36:58.865Z,84.82
2022-11-16T05:38:00.749Z,85.12
2022-11-16T05:39:02.588Z,84.66
2022-11-16T05:40:05.178Z,84.30
2022-11-16T05:41:06.977Z,83.70
2022-11-16T05:42:09.157Z,84.03
2022-11-16T05:43:11.622Z,83.88
2022-11-16T05:44:14.022Z,83.98
2022-11-16T05:45:20.833Z,84.65
2022-11-16T05:46:23.698Z,84.22
2022-11-16T05:47:25.543Z,84.88
2022-11-16T05:48:27.279Z,84.49
2022-11-16T05:49:29.070Z,84.79
2022-11-16T05:50:30.985Z,84.94
2022-11-16T05:51:32.778Z,84.73
2022-11-16T05:52:34.876Z,84.74
2022-11-16T05:53:36.693Z,84.43
2022-11-16T05:54:38.490Z,84.52
2022-11-16T05:55:40.358Z,84.23
2022-11-16T05:56:42.473Z,84.10
2022-11-16T05:57:44.365Z,83.50
2022-11-16T05:58:46.578Z,83.17
2022-11-16T05:59:48.471Z,83.68
2022-11-16T06:00:51.492Z,82.88
2022-11-16T06:01:53.449Z,83.66
2022-11-16T06:02:55.806Z,82.77
2022-11-16T06:04:01.496Z,82.36
2022-11-16T06:05:03.410Z,82.08
2022-11-16T06:06:05.646Z,82.71
2022-11-16T06:07:07.492Z,82.84
2022-11-16T06:08:09.426Z,82.64
2022-11-16T06:09:12.266Z,82.40
2022-11-16T06:10:14.105Z,82.93
2022-11-16T06:11:15.975Z,82.10
2022-11-16T06:12:17.882Z,82.42
2022-11-16T06:13:19.749Z,82.43
2022-11-16T06:14:21.632Z,82.83
2022-11-16T06:15:23.407Z,82.86
2022-11-16T06:16:25.302Z,83.14
2022-11-16T06:17:27.148Z,83.08
2022-11-16T06:18:29.136Z,83.02
2022-11-16T06:19:32.676Z,82.90
2022-11-16T06:20:35.478Z,82.60
2022-11-16T06:21:37.290Z,82.45
2022-11-16T06:22:39.139Z,82.95
2022-11-16T06:23:41.087Z,82.59
2022-11-16T06:24:42.911Z,82.22
2022-11-16T06:25:45.140Z,82.48
2022-11-16T06:26:47.437Z,82.21
2022-11-16T06:27:49.256Z,82.80
2022-11-16T06:28:51.161Z,83.04
2022-11-16T06:29:53.009Z,82.71
2022-11-16T06:30:54.946Z,83.34
2022-11-16T06:31:56.757Z,83.38
2022-11-16T06:32:58.545Z,83.11
2022-11-16T06:34:00.479Z,83.57
2022-11-16T06:35:02.293Z,83.20
2022-11-16T06:36:04.252Z,82.79
2022-11-16T06:37:06.216Z,83.01
2022-11-16T06:38:08.054Z,82.58
2022-11-16T06:39:11.728Z,82.22
2022-11-16T06:40:13.653Z,82.21
2022-11-16T06:41:15.548Z,82.55
2022-11-16T06:42:17.446Z,82.17
2022-11-16T06:43:19.724Z,82.83
2022-11-16T06:44:21.734Z,82.43
2022-11-16T06:45:23.838Z,82.68
2022-11-16T06:46:25.827Z,81.99
2022-11-16T06:47:27.621Z,82.14
2022-11-16T06:48:30.766Z,82.62
2022-11-16T06:49:32.803Z,82.00
2022-11-16T06:50:34.909Z,81.91
2022-11-16T06:51:36.652Z,81.71
2022-11-16T06:52:38.539Z,81.49
2022-11-16T06:53:40.790Z,82.17
2022-11-16T06:54:42.588Z,81.68
2022-11-16T06:55:44.479Z,81.45
2022-11-16T06:56:46.306Z,81.87
2022-11-16T06:57:48.224Z,81.35
2022-11-16T06:58:53.317Z,81.10
2022-11-16T06:59:55.578Z,81.26
2022-11-16T07:00:58.157Z,81.14
2022-11-16T07:01:59.930Z,81.07
2022-11-16T07:03:05.095Z,81.02
2022-11-16T07:04:06.992Z,81.10
2022-11-16T07:05:08.875Z,80.98
2022-11-16T07:06:11.770Z,81.04
2022-11-16T07:07:13.591Z,81.23
2022-11-16T07:08:15.530Z,81.13
2022-11-16T07:09:17.557Z,81.26
2022-11-16T07:10:19.385Z,81.39
2022-11-16T07:11:21.186Z,81.53
2022-11-16T07:12:23.074Z,81.70
2022-11-16T07:13:24.903Z,81.21
2022-11-16T07:14:26.749Z,80.96
2022-11-16T07:15:28.545Z,81.15
2022-11-16T07:16:30.350Z,80.99
2022-11-16T07:17:33.406Z,81.22
2022-11-16T07:18:36.597Z,81.32
2022-11-16T07:19:38.850Z,81.28
2022-11-16T07:20:40.616Z,81.17
2022-11-16T07:21:42.451Z,80.95
2022-11-16T07:22:44.392Z,80.88
2022-11-16T07:23:46.273Z,81.27
2022-11-16T07:24:48.259Z,80.83
2022-11-16T07:25:50.073Z,80.57
2022-11-16T07:26:51.928Z,81.11
2022-11-16T07:27:53.778Z,81.56
2022-11-16T07:28:55.717Z,81.35
2022-11-16T07:29:57.657Z,81.26
2022-11-16T07:31:03.340Z,80.62
2022-11-16T07:32:05.170Z,80.74
2022-11-16T07:33:07.130Z,81.74
2022-11-16T07:34:08.954Z,80.81
2022-11-16T07:35:10.920Z,81.31
2022-11-16T07:36:14.221Z,81.77
2022-11-16T07:37:16.025Z,81.78
2022-11-16T07:38:18.270Z,82.00
2022-11-16T07:39:22.070Z,82.02
2022-11-16T07:40:23.997Z,81.34
2022-11-16T07:41:25.899Z,82.10
2022-11-16T07:42:27.705Z,82.35
2022-11-16T07:43:31.973Z,82.14
2022-11-16T07:44:33.862Z,82.27
2022-11-16T07:45:35.931Z,81.63
2022-11-16T07:46:46.664Z,81.44
2022-11-16T07:47:52.582Z,81.87
2022-11-16T07:48:54.390Z,81.81
2022-11-16T07:49:56.239Z,81.20
2022-11-16T07:51:05.978Z,81.85
2022-11-16T07:52:11.283Z,81.83
2022-11-16T07:53:13.067Z,82.47
2022-11-16T07:54:15.394Z,82.26
2022-11-16T07:55:17.272Z,82.51
2022-11-16T07:56:19.032Z,82.18
2022-11-16T07:57:21.003Z,81.42
2022-11-16T07:58:22.974Z,81.57
2022-11-16T07:59:24.771Z,81.81
2022-11-16T08:00:26.692Z,80.82
2022-11-16T08:01:28.727Z,81.13
2022-11-16T08:02:30.654Z,81.14
2022-11-16T08:03:33.062Z,81.25
2022-11-16T08:04:34.925Z,81.93
2022-11-16T08:05:36.714Z,81.81
2022-11-16T08:06:38.526Z,82.35
2022-11-16T08:07:40.499Z,81.97
2022-11-16T08:08:42.569Z,81.80
2022-11-16T08:09:44.475Z,82.30
2022-11-16T08:10:46.321Z,81.33
2022-11-16T08:11:48.168Z,81.28
2022-11-16T08:12:50.199Z,80.95
2022-11-16T08:13:52.010Z,81.69
2022-11-16T08:14:53.802Z,81.94
2022-11-16T08:15:55.635Z,81.19
2022-11-16T08:16:57.498Z,81.38
2022-11-16T08:17:59.438Z,81.33
2022-11-16T08:19:01.453Z,81.83
2022-11-16T08:20:03.258Z,82.04
2022-11-16T08:21:06.240Z,81.69
2022-11-16T08:22:08.318Z,82.05
2022-11-16T08:23:10.829Z,81.68
2022-11-16T08:24:12.749Z,82.20
2022-11-16T08:25:14.480Z,81.98
2022-11-16T08:26:17.541Z,82.33
2022-11-16T08:27:19.402Z,82.53
2022-11-16T08:28:21.333Z,82.04
2022-11-16T08:29:23.209Z,82.41
2022-11-16T08:30:25.041Z,82.86
2022-11-16T08:31:28.030Z,82.11
2022-11-16T08:32:30.368Z,82.20
2022-11-16T08:33:32.298Z,82.46
2022-11-16T08:34:34.153Z,82.18
2022-11-16T08:35:36.438Z,82.40
2022-11-16T08:36:38.281Z,82.20
2022-11-16T08:37:40.053Z,82.39
2022-11-16T08:38:41.836Z,81.62
2022-11-16T08:39:43.780Z,82.28
2022-11-16T08:40:45.809Z,81.25
2022-11-16T08:41:47.840Z,82.08
2022-11-16T08:42:49.728Z,80.99
2022-11-16T08:43:53.631Z,81.94
2022-11-16T08:44:55.523Z,81.16
2022-11-16T08:45:57.781Z,81.43
2022-11-16T08:46:59.723Z,81.34
2022-11-16T08:48:04.037Z,81.52
2022-11-16T08:49:06.311Z,81.26
2022-11-16T08:50:08.297Z,81.96
2022-11-16T08:51:18.883Z,81.63
2022-11-16T08:52:21.662Z,81.76
2022-11-16T08:53:23.409Z,81.36
2022-11-16T08:54:25.379Z,81.30
2022-11-16T08:55:27.370Z,81.60
2022-11-16T08:56:30.444Z,81.23
2022-11-16T08:57:32.252Z,81.32
2022-11-16T08:58:34.488Z,81.04
2022-11-16T08:59:36.724Z,80.83
2022-11-16T09:00:38.623Z,80.66
2022-11-16T09:01:40.512Z,80.90
2022-11-16T09:02:42.285Z,81.08
2022-11-16T09:03:44.341Z,80.71
2022-11-16T09:04:46.183Z,81.36
2022-11-16T09:05:48.032Z,81.09
2022-11-16T09:06:49.844Z,80.74
2022-11-16T09:07:51.622Z,80.14
2022-11-16T09:08:54.047Z,79.85
2022-11-16T09:09:55.946Z,79.88
2022-11-16T09:10:57.836Z,80.12
2022-11-16T09:11:59.577Z,79.88
2022-11-16T09:13:01.477Z,80.00
2022-11-16T09:14:03.351Z,80.02
2022-11-16T09:15:06.451Z,80.13
2022-11-16T09:16:08.420Z,79.66
2022-11-16T09:17:10.248Z,79.81
2022-11-16T09:18:12.103Z,79.97
2022-11-16T09:19:14.572Z,79.49
2022-11-16T09:20:16.391Z,79.91
2022-11-16T09:21:22.552Z,79.54
2022-11-16T09:22:24.365Z,79.37
2022-11-16T09:23:26.312Z,78.71
2022-11-16T09:24:28.142Z,78.97
2022-11-16T09:25:30.079Z,79.67
2022-11-16T09:26:31.938Z,79.18
2022-11-16T09:27:33.838Z,79.27
2022-11-16T09:28:36.036Z,78.91
2022-11-16T09:29:38.116Z,79.44
2022-11-16T09:30:40.129Z,79.34
2022-11-16T09:31:42.408Z,79.59
2022-11-16T09:32:44.260Z,79.35
2022-11-16T09:33:48.028Z,79.15
2022-11-16T09:34:49.813Z,79.30
2022-11-16T09:35:51.709Z,78.99
2022-11-16T09:36:53.684Z,78.78
2022-11-16T09:37:55.505Z,78.62
2022-11-16T09:40:19.596Z,78.34
2022-11-16T09:41:30.700Z,78.83
2022-11-16T09:42:59.306Z,78.44
2022-11-16T09:44:12.856Z,78.65
2022-11-16T09:45:27.531Z,78.57
2022-11-16T09:46:41.735Z,78.30
2022-11-16T09:47:45.923Z,78.35
2022-11-16T09:48:48.909Z,78.05
2022-11-16T09:49:59.853Z,78.06
2022-11-16T09:51:08.550Z,78.39
2022-11-16T09:52:15.100Z,78.14
2022-11-16T09:53:21.711Z,78.21
2022-11-16T09:54:26.197Z,78.99
2022-11-16T09:55:37.620Z,78.65
2022-11-16T09:56:40.689Z,78.72
2022-11-16T09:57:42.641Z,78.55
2022-11-16T09:58:50.117Z,78.50
2022-11-16T09:59:54.792Z,78.35
2022-11-16T10:00:59.580Z,78.46
2022-11-16T10:02:17.102Z,78.84
2022-11-16T10:03:19.023Z,78.86
2022-11-16T10:04:37.320Z,79.17
2022-11-16T10:05:57.300Z,78.71
2022-11-16T10:07:01.322Z,78.72
2022-11-16T10:08:06.829Z,78.88
2022-11-16T10:09:11.418Z,78.58
2022-11-16T10:10:17.180Z,78.43
2022-11-16T10:11:37.400Z,78.44
2022-11-16T10:12:56.049Z,78.72
2022-11-16T10:14:26.951Z,79.04
2022-11-16T10:15:34.589Z,79.34
2022-11-16T10:16:56.594Z,79.99
2022-11-16T10:17:58.335Z,79.51
2022-11-16T10:19:18.337Z,79.98
2022-11-16T10:20:20.215Z,80.32
2022-11-16T10:21:28.012Z,80.10
2022-11-16T10:22:47.210Z,80.11
2022-11-16T10:24:01.322Z,79.73
2022-11-16T10:25:09.226Z,80.00
2022-11-16T10:26:26.223Z,79.93
2022-11-16T10:27:28.010Z,79.85
2022-11-16T10:28:32.861Z,79.28
2022-11-16T10:29:37.755Z,79.26
2022-11-16T10:30:44.412Z,79.44
2022-11-16T10:31:55.313Z,79.07
2022-11-16T10:33:03.591Z,79.42
2022-11-16T10:34:09.188Z,79.75
2022-11-16T10:35:10.949Z,79.79
2022-11-16T10:36:16.272Z,80.01
2022-11-16T10:37:18.253Z,80.23
2022-11-16T10:38:25.592Z,80.06
2022-11-16T10:39:27.878Z,79.70
2022-11-16T10:40:30.944Z,79.37
2022-11-16T10:41:37.788Z,80.02
2022-11-16T10:42:39.719Z,80.03
2022-11-16T10:43:42.541Z,79.64
2022-11-16T10:44:46.830Z,79.79
2022-11-16T10:45:56.250Z,79.66
2022-11-16T10:47:03.755Z,79.74
2022-11-16T10:48:24.567Z,79.79
2022-11-16T10:49:31.009Z,79.71
2022-11-16T10:50:47.085Z,79.74
2022-11-16T10:51:48.877Z,79.23
2022-11-16T10:52:50.730Z,79.98
2022-11-16T10:53:53.488Z,79.66
2022-11-16T10:54:55.384Z,80.06
2022-11-16T10:56:03.370Z,79.75
2022-11-16T10:57:09.051Z,79.67
2022-11-16T10:58:10.963Z,80.05
2022-11-16T10:59:15.909Z,79.88
2022-11-16T11:00:33.466Z,78.86
2022-11-16T11:01:38.575Z,79.11
2022-11-16T11:02:48.628Z,78.50
2022-11-16T11:03:51.279Z,78.91
2022-11-16T11:05:03.645Z,78.69
2022-11-16T11:06:06.455Z,78.72
2022-11-16T11:07:26.753Z,79.10
2022-11-16T11:08:32.316Z,79.31
2022-11-16T11:09:35.700Z,78.83
2022-11-16T11:10:41.537Z,79.21
2022-11-16T11:12:15.781Z,79.25
2022-11-16T11:13:26.885Z,79.02
2022-11-16T11:14:28.663Z,79.20
2022-11-16T11:15:30.568Z,79.41
2022-11-16T11:16:33.055Z,79.13
2022-11-16T11:17:35.850Z,79.29
2022-11-16T11:18:37.656Z,79.26
2022-11-16T11:19:39.558Z,79.27
2022-11-16T11:20:45.117Z,79.08
2022-11-16T11:21:47.591Z,79.65
2022-11-16T11:22:56.103Z,79.91
2022-11-16T11:24:16.386Z,79.70
2022-11-16T11:25:22.909Z,79.98
2022-11-16T11:26:36.262Z,79.81
2022-11-16T11:27:38.717Z,79.82
2022-11-16T11:28:46.817Z,79.81
2022-11-16T11:29:51.734Z,79.65
2022-11-16T11:30:59.199Z,80.05
2022-11-16T11:32:04.557Z,80.82
2022-11-16T11:33:11.728Z,80.91
2022-11-16T11:34:19.574Z,80.40
2022-11-16T11:35:29.585Z,80.72
2022-11-16T11:36:38.734Z,80.25
2022-11-16T11:37:40.967Z,79.83
2022-11-16T11:39:15.080Z,80.01
2022-11-16T11:40:29.809Z,79.88
2022-11-16T11:41:36.880Z,80.11
2022-11-16T11:42:41.633Z,80.30
2022-11-16T11:43:43.436Z,80.59
2022-11-16T11:44:50.594Z,80.99
2022-11-16T11:46:09.836Z,80.50
2022-11-16T11:48:00.336Z,80.65
2022-11-16T11:48:57.630Z,81.01
2022-11-16T11:50:06.745Z,81.09
2022-11-16T11:51:15.553Z,80.92
2022-11-16T11:52:21.362Z,80.17
2022-11-16T11:53:26.233Z,79.86
2022-11-16T11:54:44.572Z,80.27
2022-11-16T11:55:48.142Z,80.42
2022-11-16T11:56:49.980Z,80.82
2022-11-16T11:57:53.941Z,80.91
2022-11-16T11:58:56.675Z,81.58
2022-11-16T11:59:58.508Z,81.46
2022-11-16T12:01:09.340Z,81.17
2022-11-16T12:02:26.212Z,82.24
2022-11-16T12:03:28.334Z,82.09
2022-11-16T12:04:35.758Z,82.04
2022-11-16T12:05:43.265Z,82.45
2022-11-16T12:06:51.644Z,82.53
2022-11-16T12:08:10.731Z,82.02
2022-11-16T12:09:12.498Z,81.93
2022-11-16T12:10:14.291Z,83.03
2022-11-16T12:11:45.215Z,82.43
2022-11-16T12:12:49.891Z,83.22
2022-11-16T12:14:00.729Z,82.98
2022-11-16T12:15:21.346Z,82.81
2022-11-16T12:16:32.573Z,83.49
2022-11-16T12:17:41.523Z,83.23
2022-11-16T12:18:49.203Z,83.44
2022-11-16T12:20:11.260Z,83.40
2022-11-16T12:21:20.176Z,83.10
2022-11-16T12:22:34.236Z,84.28
2022-11-16T12:23:42.294Z,83.28
2022-11-16T12:24:47.245Z,83.68
2022-11-16T12:25:51.842Z,84.18
2022-11-16T12:26:53.619Z,84.01
2022-11-16T12:28:04.720Z,84.56
2022-11-16T12:29:25.308Z,84.37
2022-11-16T12:30:27.363Z,84.52
2022-11-16T12:31:38.073Z,84.69
2022-11-16T12:32:58.353Z,84.77
2022-11-16T12:34:28.488Z,84.73
2022-11-16T12:35:30.653Z,85.51
2022-11-16T12:36:44.777Z,85.00
2022-11-16T12:37:49.496Z,85.14
2022-11-16T12:39:04.331Z,85.51
2022-11-16T12:40:12.318Z,85.29
2022-11-16T12:41:14.099Z,85.16
2022-11-16T12:42:22.367Z,85.32
2022-11-16T12:43:47.292Z,85.54
2022-11-16T12:45:02.595Z,85.32
2022-11-16T12:46:25.688Z,85.65
2022-11-16T12:47:27.462Z,85.97
2022-11-16T12:48:29.224Z,85.68
2022-11-16T12:49:33.863Z,85.39
2022-11-16T12:50:35.579Z,85.33
2022-11-16T12:51:42.541Z,85.34
2022-11-16T12:52:47.223Z,85.30
2022-11-16T12:53:49.002Z,84.83
2022-11-16T12:55:26.329Z,85.20
2022-11-16T12:56:38.387Z,85.32
2022-11-16T12:57:43.012Z,84.66
2022-11-16T12:59:11.789Z,84.52
2022-11-16T13:00:17.572Z,85.00
2022-11-16T13:01:37.397Z,84.97
2022-11-16T13:02:57.830Z,84.13
2022-11-16T13:04:04.467Z,84.66
2022-11-16T13:05:26.643Z,85.05
2022-11-16T13:06:31.925Z,85.49
2022-11-16T13:07:40.801Z,85.81
2022-11-16T13:08:42.626Z,86.42
2022-11-16T13:09:47.872Z,86.85
2022-11-16T13:10:51.319Z,86.41
2022-11-16T13:11:57.710Z,86.07
2022-11-16T13:13:34.887Z,85.82
2022-11-16T13:14:44.884Z,85.75
2022-11-16T13:15:48.303Z,85.94
2022-11-16T13:16:51.376Z,86.23
2022-11-16T13:17:59.048Z,86.46
2022-11-16T13:19:01.140Z,86.21
2022-11-16T13:20:14.941Z,85.70
2022-11-16T13:21:19.974Z,85.77
2022-11-16T13:22:24.132Z,85.97
2022-11-16T13:23:31.982Z,85.60
2022-11-16T13:24:37.478Z,85.63
2022-11-16T13:25:57.833Z,85.45
2022-11-16T13:27:15.061Z,85.54
2022-11-16T13:28:20.362Z,85.59
2022-11-16T13:29:30.531Z,85.74
2022-11-16T13:30:50.717Z,85.71
2022-11-16T13:31:58.652Z,85.69
2022-11-16T13:33:13.936Z,85.66
2022-11-16T13:34:35.845Z,86.57
2022-11-16T13:35:38.417Z,86.63
2022-11-16T13:36:45.358Z,86.41
2022-11-16T13:37:51.907Z,86.98
2022-11-16T13:38:53.881Z,87.31
2022-11-16T13:39:58.816Z,88.10
2022-11-16T13:41:19.384Z,87.94
2022-11-16T13:42:21.209Z,87.70
2022-11-16T13:43:23.139Z,87.68
2022-11-16T13:44:27.174Z,87.59
2022-11-16T13:45:34.840Z,87.75
2022-11-16T13:46:56.167Z,88.00
2022-11-16T13:47:58.954Z,88.13
2022-11-16T13:49:00.827Z,88.23
2022-11-16T13:50:03.878Z,87.93
2022-11-16T13:51:09.703Z,88.08
2022-11-16T13:52:46.846Z,88.37
2022-11-16T13:54:37.859Z,88.62
2022-11-16T13:55:13.233Z,88.70
2022-11-16T13:56:16.319Z,89.10
2022-11-16T13:57:30.142Z,89.02
2022-11-16T13:58:33.244Z,88.60
2022-11-16T13:59:36.531Z,88.85
2022-11-16T14:00:41.555Z,89.09
2022-11-16T14:02:15.940Z,88.45
2022-11-16T14:03:17.731Z,88.86
2022-11-16T14:04:51.914Z,88.94
2022-11-16T14:05:53.826Z,89.43
2022-11-16T14:06:57.852Z,89.65
2022-11-16T14:08:19.673Z,89.41
2022-11-16T14:09:40.241Z,89.85
2022-11-16T14:10:45.070Z,89.85